Time;durP1;ratioP1;P1;durP2;ratioP2;P2;SDS_P1;SDS_P2;PMS_P1;PMS_P2;Temp;Humidity;BMP_temperature;BMP_pressure;BME280_temperature;BME280_humidity;BME280_pressure;Samples;Min_cycle;Max_cycle;Signal;HPM_P1;HPM_P2
2023/12/08 00:01:19;;;;;;;;;;;15.60;52.90;;;;;;10262047;28;94460;-47
2023/12/08 00:06:21;;;;;;;;;;;15.60;52.80;;;;;;10272526;28;94536;-44
2023/12/08 00:11:23;;;;;;;;;;;15.60;52.60;;;;;;10270133;28;92770;-44
2023/12/08 00:16:25;;;;;;;;;;;15.50;52.70;;;;;;10284555;28;94939;-49
2023/12/08 00:21:26;;;;;;;;;;;15.50;53.20;;;;;;10261433;28;94435;-47
2023/12/08 00:26:28;;;;;;;;;;;15.50;53.60;;;;;;10269713;28;95848;-44
2023/12/08 00:31:31;;;;;;;;;;;15.50;53.40;;;;;;10262555;28;94379;-45
2023/12/08 00:36:33;;;;;;;;;;;15.60;53.10;;;;;;10250778;28;94631;-45
2023/12/08 00:41:35;;;;;;;;;;;15.60;52.80;;;;;;10275845;28;94795;-48
2023/12/08 00:46:37;;;;;;;;;;;15.70;52.60;;;;;;10280840;28;93781;-47
2023/12/08 00:51:39;;;;;;;;;;;15.60;52.40;;;;;;10259804;28;94421;-48
2023/12/08 00:56:41;;;;;;;;;;;15.60;52.30;;;;;;10263545;28;95381;-49
2023/12/08 01:01:43;;;;;;;;;;;15.60;52.10;;;;;;10251967;28;93649;-47
2023/12/08 01:06:44;;;;;;;;;;;15.50;51.90;;;;;;10272396;28;94669;-49
2023/12/08 01:11:46;;;;;;;;;;;15.50;52.20;;;;;;10271913;28;94478;-48
2023/12/08 01:16:48;;;;;;;;;;;15.40;52.60;;;;;;10268111;28;96578;-49
2023/12/08 01:21:51;;;;;;;;;;;15.40;52.90;;;;;;10271520;28;94835;-49
2023/12/08 01:26:53;;;;;;;;;;;15.30;52.70;;;;;;10274759;28;93501;-48
2023/12/08 01:31:55;;;;;;;;;;;15.30;52.70;;;;;;10269270;28;92910;-49
2023/12/08 01:36:57;;;;;;;;;;;15.30;52.50;;;;;;10271301;28;93593;-46
2023/12/08 01:41:59;;;;;;;;;;;15.30;52.50;;;;;;10263391;28;94629;-50
2023/12/08 01:47:01;;;;;;;;;;;15.20;52.50;;;;;;10276855;28;93541;-55
2023/12/08 01:52:05;;;;;;;;;;;15.30;52.30;;;;;;10269179;28;94170;-46
2023/12/08 01:57:07;;;;;;;;;;;15.30;52.10;;;;;;10276788;28;92651;-48
2023/12/08 02:07:35;;;;;;;;;;;15.40;52.10;;;;;;10236670;28;97843;-63
2023/12/08 02:12:37;;;;;;;;;;;15.30;52.50;;;;;;10253074;28;94495;-62
2023/12/08 02:17:39;;;;;;;;;;;15.30;52.60;;;;;;10265738;28;93421;-63
2023/12/08 02:22:41;;;;;;;;;;;15.40;52.70;;;;;;10272254;28;93840;-63
2023/12/08 02:27:44;;;;;;;;;;;15.40;52.30;;;;;;10273399;28;94853;-63
2023/12/08 02:32:56;;;;;;;;;;;15.50;52.10;;;;;;10274751;28;93845;-63
2023/12/08 02:37:59;;;;;;;;;;;15.50;51.90;;;;;;10296411;28;92890;-63
2023/12/08 02:43:01;;;;;;;;;;;15.50;51.80;;;;;;10317715;28;93844;-63
2023/12/08 02:48:03;;;;;;;;;;;15.40;51.60;;;;;;10294727;28;94603;-63
2023/12/08 02:53:05;;;;;;;;;;;15.40;51.50;;;;;;10281279;28;93557;-63
2023/12/08 02:58:07;;;;;;;;;;;15.30;51.50;;;;;;10268265;28;96786;-63
2023/12/08 03:03:09;;;;;;;;;;;15.30;51.80;;;;;;10273121;28;93440;-63
2023/12/08 03:08:11;;;;;;;;;;;15.30;52.40;;;;;;10262248;28;93571;-63
2023/12/08 03:13:12;;;;;;;;;;;15.20;52.70;;;;;;10266625;28;95096;-64
2023/12/08 03:18:14;;;;;;;;;;;15.20;53.00;;;;;;10250380;28;94415;-63
2023/12/08 03:23:17;;;;;;;;;;;15.20;53.20;;;;;;10271406;28;94445;-63
2023/12/08 03:28:18;;;;;;;;;;;15.30;53.20;;;;;;10258197;28;93716;-63
2023/12/08 03:33:20;;;;;;;;;;;15.40;53.10;;;;;;10245935;28;93306;-63
2023/12/08 03:38:22;;;;;;;;;;;15.50;52.90;;;;;;10268025;28;94706;-63
2023/12/08 03:43:24;;;;;;;;;;;15.50;52.80;;;;;;10263676;28;94612;-62
2023/12/08 03:48:26;;;;;;;;;;;15.50;52.60;;;;;;10254749;28;96383;-63
2023/12/08 03:53:27;;;;;;;;;;;15.60;52.70;;;;;;10258951;28;94553;-63
2023/12/08 03:58:29;;;;;;;;;;;15.50;52.60;;;;;;10270685;28;94305;-63
2023/12/08 04:03:31;;;;;;;;;;;15.50;52.60;;;;;;10257193;28;94089;-62
2023/12/08 04:08:33;;;;;;;;;;;15.50;52.70;;;;;;10255753;28;93875;-63
2023/12/08 04:13:37;;;;;;;;;;;15.40;52.70;;;;;;10251899;28;94716;-62
2023/12/08 04:18:39;;;;;;;;;;;15.40;52.90;;;;;;10246910;28;93918;-63
2023/12/08 04:23:41;;;;;;;;;;;15.30;52.90;;;;;;10267456;28;93915;-62
2023/12/08 04:28:43;;;;;;;;;;;15.30;53.00;;;;;;10269440;28;93420;-62
2023/12/08 04:33:44;;;;;;;;;;;15.20;53.10;;;;;;10265442;28;93788;-63
2023/12/08 04:38:47;;;;;;;;;;;15.20;53.20;;;;;;10274293;28;95862;-63
2023/12/08 04:43:49;;;;;;;;;;;15.10;53.40;;;;;;10281322;28;93931;-62
2023/12/08 04:48:50;;;;;;;;;;;15.10;53.50;;;;;;10271432;28;94601;-63
2023/12/08 04:53:52;;;;;;;;;;;15.20;53.50;;;;;;10260805;28;94355;-63
2023/12/08 04:58:54;;;;;;;;;;;15.30;53.50;;;;;;10286869;28;93805;-63
2023/12/08 05:03:56;;;;;;;;;;;15.40;53.30;;;;;;10258749;28;94455;-63
2023/12/08 05:08:58;;;;;;;;;;;15.50;53.10;;;;;;10272603;28;94442;-63
2023/12/08 05:13:59;;;;;;;;;;;15.60;53.00;;;;;;10265607;28;92729;-64
2023/12/08 05:19:01;;;;;;;;;;;15.60;52.90;;;;;;10268847;28;93120;-63
2023/12/08 05:24:03;;;;;;;;;;;15.50;52.80;;;;;;10270944;28;94502;-63
2023/12/08 05:29:06;;;;;;;;;;;15.50;52.80;;;;;;10260447;28;95526;-63
2023/12/08 05:34:07;;;;;;;;;;;15.50;52.90;;;;;;10258327;28;93910;-63
2023/12/08 05:39:10;;;;;;;;;;;15.40;53.00;;;;;;10247966;28;93685;-63
2023/12/08 05:44:11;;;;;;;;;;;15.40;53.20;;;;;;10266103;28;93511;-63
2023/12/08 05:49:13;;;;;;;;;;;15.40;53.40;;;;;;10257235;28;94514;-63
2023/12/08 05:54:15;;;;;;;;;;;15.60;53.20;;;;;;10274927;28;92628;-63
2023/12/08 05:59:17;;;;;;;;;;;15.90;52.80;;;;;;10270624;28;94923;-63
2023/12/08 06:04:19;;;;;;;;;;;16.20;52.30;;;;;;10252243;28;93192;-63
2023/12/08 06:09:21;;;;;;;;;;;16.40;51.80;;;;;;10255078;28;94203;-62
2023/12/08 06:14:22;;;;;;;;;;;16.60;51.40;;;;;;10265959;28;92951;-62
2023/12/08 06:19:24;;;;;;;;;;;16.70;51.30;;;;;;10269194;28;96802;-63
2023/12/08 06:24:26;;;;;;;;;;;16.80;51.30;;;;;;10274053;28;93471;-63
2023/12/08 06:29:28;;;;;;;;;;;16.90;51.00;;;;;;10283219;28;94514;-63
2023/12/08 06:34:32;;;;;;;;;;;16.80;51.00;;;;;;10283419;28;94126;-66
2023/12/08 06:39:34;;;;;;;;;;;16.80;51.10;;;;;;10280477;28;94192;-64
2023/12/08 06:44:36;;;;;;;;;;;16.70;51.30;;;;;;10272507;28;93508;-63
2023/12/08 06:49:38;;;;;;;;;;;16.80;51.40;;;;;;10266306;28;94788;-63
2023/12/08 06:54:40;;;;;;;;;;;16.90;51.40;;;;;;10273488;28;93142;-63
2023/12/08 06:59:42;;;;;;;;;;;16.80;51.20;;;;;;10273286;28;93753;-64
2023/12/08 07:04:44;;;;;;;;;;;16.80;51.80;;;;;;10263958;28;94471;-68
2023/12/08 07:09:46;;;;;;;;;;;16.80;53.80;;;;;;10256552;28;97389;-62
2023/12/08 07:14:50;;;;;;;;;;;16.90;53.70;;;;;;10259492;28;94090;-65
2023/12/08 07:19:52;;;;;;;;;;;17.00;53.80;;;;;;10261658;28;94919;-64
2023/12/08 07:24:55;;;;;;;;;;;17.20;53.80;;;;;;10258922;28;93490;-64
2023/12/08 07:29:57;;;;;;;;;;;17.30;53.70;;;;;;10259702;28;93706;-64
2023/12/08 07:34:59;;;;;;;;;;;17.30;53.80;;;;;;10256023;28;93950;-64
2023/12/08 07:40:01;;;;;;;;;;;17.20;53.90;;;;;;10265084;28;93649;-64
2023/12/08 07:45:04;;;;;;;;;;;17.10;54.00;;;;;;10252765;28;92503;-63
2023/12/08 07:50:06;;;;;;;;;;;17.10;54.10;;;;;;10266313;28;93804;-64
2023/12/08 07:55:08;;;;;;;;;;;17.10;54.00;;;;;;10264458;28;94221;-64
2023/12/08 08:00:10;;;;;;;;;;;17.20;53.90;;;;;;10247067;28;95827;-65
2023/12/08 08:05:13;;;;;;;;;;;17.30;53.90;;;;;;10264637;28;94000;-61
2023/12/08 08:10:14;;;;;;;;;;;17.40;55.00;;;;;;10261863;28;94628;-61
2023/12/08 08:15:17;;;;;;;;;;;17.50;54.40;;;;;;10280275;28;93439;-63
2023/12/08 08:20:19;;;;;;;;;;;17.60;54.00;;;;;;10277023;28;95345;-62
2023/12/08 08:25:21;;;;;;;;;;;17.60;53.80;;;;;;10283111;28;94387;-62
2023/12/08 08:30:26;;;;;;;;;;;17.70;53.60;;;;;;10282125;28;94655;-62
2023/12/08 08:35:28;;;;;;;;;;;17.70;53.50;;;;;;10285657;28;92701;-62
2023/12/08 08:40:32;;;;;;;;;;;17.70;53.40;;;;;;10286544;28;93994;-64
2023/12/08 08:45:34;;;;;;;;;;;17.70;53.30;;;;;;10289061;28;93434;-63
2023/12/08 08:50:36;;;;;;;;;;;17.80;53.30;;;;;;10277661;28;95837;-62
2023/12/08 08:55:50;;;;;;;;;;;17.80;53.20;;;;;;10270828;28;94950;-62
2023/12/08 09:00:52;;;;;;;;;;;17.80;53.20;;;;;;10274788;28;94174;-63
2023/12/08 09:05:54;;;;;;;;;;;17.70;53.30;;;;;;10271754;28;95115;-62
2023/12/08 09:10:56;;;;;;;;;;;17.60;53.40;;;;;;10279396;28;95736;-61
2023/12/08 09:15:59;;;;;;;;;;;17.60;53.40;;;;;;10276745;28;97731;-63
2023/12/08 09:21:01;;;;;;;;;;;17.60;53.40;;;;;;10256084;28;94470;-62
2023/12/08 09:26:03;;;;;;;;;;;17.70;53.50;;;;;;10283040;28;92832;-62
2023/12/08 09:31:05;;;;;;;;;;;17.80;53.30;;;;;;10256465;28;93812;-61
2023/12/08 09:36:06;;;;;;;;;;;17.80;53.30;;;;;;10275979;28;93899;-62
2023/12/08 09:41:09;;;;;;;;;;;17.90;53.10;;;;;;10257892;28;96397;-62
2023/12/08 09:46:12;;;;;;;;;;;18.00;53.10;;;;;;10261837;28;93724;-63
2023/12/08 09:51:15;;;;;;;;;;;18.00;52.90;;;;;;10264511;28;94398;-62
2023/12/08 09:56:18;;;;;;;;;;;18.00;52.80;;;;;;10254999;28;94827;-63
2023/12/08 10:01:20;;;;;;;;;;;17.90;52.80;;;;;;10273390;28;93872;-61
2023/12/08 10:06:22;;;;;;;;;;;17.90;53.00;;;;;;10273038;28;94524;-61
2023/12/08 10:11:24;;;;;;;;;;;17.80;53.10;;;;;;10270705;28;94208;-62
2023/12/08 10:16:26;;;;;;;;;;;17.80;53.30;;;;;;10251931;28;93826;-61
2023/12/08 10:21:29;;;;;;;;;;;17.90;53.40;;;;;;10261985;28;93637;-62
2023/12/08 10:26:31;;;;;;;;;;;17.90;53.30;;;;;;10266780;28;93781;-62
2023/12/08 10:31:33;;;;;;;;;;;18.00;53.10;;;;;;10262690;28;96234;-62
2023/12/08 10:36:39;;;;;;;;;;;18.00;53.10;;;;;;10262492;28;94457;-62
2023/12/08 10:41:49;;;;;;;;;;;17.90;53.00;;;;;;10296831;28;94800;-62
2023/12/08 10:46:52;;;;;;;;;;;17.90;53.20;;;;;;10281894;28;93487;-62
2023/12/08 10:51:54;;;;;;;;;;;17.90;53.30;;;;;;10277452;28;94526;-62
2023/12/08 10:56:56;;;;;;;;;;;17.90;53.30;;;;;;10269612;28;93424;-61
2023/12/08 11:02:00;;;;;;;;;;;17.90;53.30;;;;;;10275519;28;94514;-61
2023/12/08 11:07:06;;;;;;;;;;;18.00;53.30;;;;;;10256473;28;93731;-62
2023/12/08 11:12:12;;;;;;;;;;;18.00;53.20;;;;;;10266988;28;113816;-62
2023/12/08 11:17:26;;;;;;;;;;;18.00;53.10;;;;;;10252919;28;93675;-62
2023/12/08 11:22:29;;;;;;;;;;;18.00;53.10;;;;;;10272559;28;95647;-62
2023/12/08 11:27:36;;;;;;;;;;;17.90;53.20;;;;;;10270745;28;95069;-61
2023/12/08 11:32:38;;;;;;;;;;;17.90;53.30;;;;;;10256123;28;93854;-61
2023/12/08 11:37:40;;;;;;;;;;;17.90;53.30;;;;;;10262796;28;92624;-61
2023/12/08 11:42:44;;;;;;;;;;;18.00;53.30;;;;;;10255680;28;94809;-63
2023/12/08 11:47:46;;;;;;;;;;;18.00;53.10;;;;;;10257336;28;93167;-63
2023/12/08 11:52:50;;;;;;;;;;;18.00;53.10;;;;;;10263016;28;94515;-62
2023/12/08 11:58:11;;;;;;;;;;;18.00;53.20;;;;;;10265287;28;93854;-62
2023/12/08 12:03:13;;;;;;;;;;;17.90;53.20;;;;;;10267011;28;93527;-62
2023/12/08 12:08:15;;;;;;;;;;;17.90;53.30;;;;;;10277782;28;93106;-62
2023/12/08 12:13:19;;;;;;;;;;;17.90;53.30;;;;;;10274794;28;95585;-61
2023/12/08 12:18:21;;;;;;;;;;;18.00;53.30;;;;;;10267871;28;94434;-62
2023/12/08 12:23:23;;;;;;;;;;;18.00;53.10;;;;;;10226849;28;94758;-63
2023/12/08 12:28:25;;;;;;;;;;;18.00;53.10;;;;;;10279970;28;94552;-62
2023/12/08 12:33:27;;;;;;;;;;;17.90;53.00;;;;;;10277634;28;93280;-62
2023/12/08 12:38:29;;;;;;;;;;;17.90;53.30;;;;;;10260573;28;93451;-64
2023/12/08 12:43:31;;;;;;;;;;;17.90;53.50;;;;;;10271953;28;93671;-62
2023/12/08 12:48:33;;;;;;;;;;;18.00;53.70;;;;;;10285332;28;93251;-62
2023/12/08 12:53:53;;;;;;;;;;;18.00;53.60;;;;;;10278959;28;94575;-61
2023/12/08 12:59:02;;;;;;;;;;;18.00;53.20;;;;;;10259083;28;95972;-61
2023/12/08 13:04:04;;;;;;;;;;;18.00;54.20;;;;;;10271556;28;96924;-62
2023/12/08 13:09:06;;;;;;;;;;;17.90;53.20;;;;;;10263485;28;92867;-62
2023/12/08 13:14:08;;;;;;;;;;;17.90;53.20;;;;;;10256819;28;95050;-62
2023/12/08 13:19:10;;;;;;;;;;;17.90;53.20;;;;;;10274136;28;93492;-62
2023/12/08 13:24:12;;;;;;;;;;;17.90;53.10;;;;;;10264668;28;94648;-61
2023/12/08 13:29:15;;;;;;;;;;;17.90;53.20;;;;;;10261705;28;93658;-61
2023/12/08 13:34:17;;;;;;;;;;;17.80;53.30;;;;;;10267879;28;93604;-63
2023/12/08 13:39:20;;;;;;;;;;;17.80;53.40;;;;;;10262682;28;92674;-63
2023/12/08 13:44:22;;;;;;;;;;;17.80;53.30;;;;;;10285317;28;94369;-60
2023/12/08 13:49:23;;;;;;;;;;;17.80;53.30;;;;;;10271536;28;94513;-63
2023/12/08 13:54:25;;;;;;;;;;;17.80;53.30;;;;;;10275739;28;96288;-62
2023/12/08 13:59:27;;;;;;;;;;;17.70;53.40;;;;;;10244128;28;94192;-62
2023/12/08 14:04:29;;;;;;;;;;;17.70;53.50;;;;;;10255939;28;94778;-62
2023/12/08 14:09:31;;;;;;;;;;;17.70;53.50;;;;;;10262071;28;93425;-62
2023/12/08 14:14:33;;;;;;;;;;;17.80;53.50;;;;;;10260664;28;94140;-63
2023/12/08 14:19:35;;;;;;;;;;;17.80;53.90;;;;;;10268356;28;93468;-63
2023/12/08 14:24:37;;;;;;;;;;;17.70;56.80;;;;;;10250991;28;93476;-62
2023/12/08 14:29:39;;;;;;;;;;;17.70;55.90;;;;;;10280356;28;92790;-65
2023/12/08 14:34:42;;;;;;;;;;;17.80;56.00;;;;;;10281087;28;97486;-61
2023/12/08 14:39:44;;;;;;;;;;;17.80;56.00;;;;;;10277467;28;94484;-62
2023/12/08 14:44:45;;;;;;;;;;;17.90;55.90;;;;;;10270848;28;96412;-62
2023/12/08 14:49:47;;;;;;;;;;;17.90;55.70;;;;;;10281313;28;93161;-61
2023/12/08 14:54:49;;;;;;;;;;;17.90;55.70;;;;;;10284683;28;94973;-62
2023/12/08 14:59:51;;;;;;;;;;;17.80;55.90;;;;;;10277330;28;93417;-62
2023/12/08 15:04:52;;;;;;;;;;;17.90;56.00;;;;;;10275309;28;94405;-62
2023/12/08 15:09:54;;;;;;;;;;;17.90;55.80;;;;;;10269653;28;94844;-62
2023/12/08 15:14:56;;;;;;;;;;;17.90;55.70;;;;;;10264991;28;94361;-62
2023/12/08 15:20:01;;;;;;;;;;;17.90;55.70;;;;;;10270868;28;95901;-61
2023/12/08 15:25:03;;;;;;;;;;;17.90;55.70;;;;;;10267908;28;93974;-62
2023/12/08 15:30:07;;;;;;;;;;;17.90;55.80;;;;;;10250490;28;94150;-63
2023/12/08 15:35:09;;;;;;;;;;;18.00;55.70;;;;;;10261567;28;95903;-62
2023/12/08 15:40:11;;;;;;;;;;;18.00;55.60;;;;;;10270606;28;94552;-62
2023/12/08 15:45:13;;;;;;;;;;;18.00;55.60;;;;;;10273642;28;94701;-62
2023/12/08 15:50:15;;;;;;;;;;;18.00;55.60;;;;;;10266113;28;94481;-63
2023/12/08 15:55:19;;;;;;;;;;;17.90;55.70;;;;;;10270193;28;95395;-62
2023/12/08 16:00:22;;;;;;;;;;;18.00;55.70;;;;;;10274927;28;94208;-62
2023/12/08 16:05:24;;;;;;;;;;;18.00;55.50;;;;;;10265655;28;93548;-62
2023/12/08 16:10:26;;;;;;;;;;;18.00;55.30;;;;;;10264411;28;92813;-62
2023/12/08 16:15:28;;;;;;;;;;;18.00;55.20;;;;;;10270318;28;93853;-62
2023/12/08 16:20:30;;;;;;;;;;;18.10;55.20;;;;;;10264187;28;95238;-62
2023/12/08 16:25:32;;;;;;;;;;;18.30;55.10;;;;;;10251693;28;97125;-62
2023/12/08 16:30:33;;;;;;;;;;;18.40;54.90;;;;;;10252042;28;93400;-62
2023/12/08 16:35:35;;;;;;;;;;;18.60;54.50;;;;;;10275127;28;93780;-62
2023/12/08 16:40:40;;;;;;;;;;;18.60;54.20;;;;;;10270537;28;95207;-64
2023/12/08 16:45:43;;;;;;;;;;;18.70;54.30;;;;;;10278412;28;92644;-62
2023/12/08 16:50:45;;;;;;;;;;;18.70;58.30;;;;;;10288976;28;93705;-63
2023/12/08 16:55:47;;;;;;;;;;;18.60;57.10;;;;;;10290270;28;93712;-65
2023/12/08 17:00:49;;;;;;;;;;;18.60;58.20;;;;;;10265700;28;94290;-63
2023/12/08 17:05:51;;;;;;;;;;;18.60;58.80;;;;;;10274970;28;92838;-64
2023/12/08 17:10:53;;;;;;;;;;;18.70;59.10;;;;;;10271137;28;93459;-63
2023/12/08 17:15:55;;;;;;;;;;;18.80;59.60;;;;;;10266756;28;98784;-64
2023/12/08 17:20:57;;;;;;;;;;;18.80;60.50;;;;;;10274195;28;93447;-64
2023/12/08 17:25:58;;;;;;;;;;;18.70;60.00;;;;;;10256418;28;94841;-63
2023/12/08 17:31:00;;;;;;;;;;;18.70;59.10;;;;;;10284727;28;94451;-63
2023/12/08 17:36:03;;;;;;;;;;;18.70;58.80;;;;;;10251791;28;94430;-63
2023/12/08 17:41:05;;;;;;;;;;;18.60;58.70;;;;;;10281313;28;93061;-63
2023/12/08 17:46:07;;;;;;;;;;;18.60;58.60;;;;;;10281853;28;94540;-63
2023/12/08 17:51:12;;;;;;;;;;;18.50;58.70;;;;;;10268180;28;92414;-63
2023/12/08 17:56:14;;;;;;;;;;;18.50;58.70;;;;;;10274209;28;94159;-63
2023/12/08 18:01:16;;;;;;;;;;;18.60;58.50;;;;;;10270492;28;93422;-63
2023/12/08 18:06:20;;;;;;;;;;;18.60;58.40;;;;;;10258055;28;97112;-63
2023/12/08 18:11:23;;;;;;;;;;;18.50;58.40;;;;;;10276749;28;94571;-62
2023/12/08 18:16:25;;;;;;;;;;;18.50;58.50;;;;;;10257464;28;93807;-64
2023/12/08 18:21:28;;;;;;;;;;;18.60;58.40;;;;;;10250797;28;94463;-71
2023/12/08 18:26:32;;;;;;;;;;;18.70;58.20;;;;;;10260211;28;95640;-63
2023/12/08 18:31:34;;;;;;;;;;;18.80;57.90;;;;;;10251568;28;94406;-64
2023/12/08 18:36:36;;;;;;;;;;;18.80;57.80;;;;;;10254612;28;94386;-62
2023/12/08 18:41:38;;;;;;;;;;;18.80;57.90;;;;;;10272951;28;93876;-64
2023/12/08 18:46:41;;;;;;;;;;;18.80;58.10;;;;;;10270618;28;94554;-65
2023/12/08 18:51:45;;;;;;;;;;;18.80;57.90;;;;;;10255456;28;94865;-64
2023/12/08 18:56:47;;;;;;;;;;;18.80;58.00;;;;;;10266396;28;97780;-64
2023/12/08 19:01:52;;;;;;;;;;;18.70;58.10;;;;;;10272383;28;94639;-64
2023/12/08 19:06:53;;;;;;;;;;;18.70;58.30;;;;;;10276815;28;93822;-63
2023/12/08 19:11:56;;;;;;;;;;;18.70;58.50;;;;;;10284153;28;93698;-63
2023/12/08 19:17:01;;;;;;;;;;;18.70;58.50;;;;;;10292412;28;94696;-63
2023/12/08 19:22:03;;;;;;;;;;;18.70;58.60;;;;;;10247232;28;92581;-64
2023/12/08 19:27:04;;;;;;;;;;;18.60;58.50;;;;;;10277872;28;93222;-62
2023/12/08 19:32:06;;;;;;;;;;;18.60;58.50;;;;;;10254922;28;93305;-64
2023/12/08 19:37:08;;;;;;;;;;;18.70;58.50;;;;;;10259093;28;94528;-63
2023/12/08 19:42:10;;;;;;;;;;;18.90;58.50;;;;;;10264937;28;93736;-64
2023/12/08 19:47:12;;;;;;;;;;;18.90;58.20;;;;;;10267444;28;96410;-64
2023/12/08 19:52:13;;;;;;;;;;;18.90;57.80;;;;;;10279138;28;92807;-63
2023/12/08 19:57:15;;;;;;;;;;;18.90;57.80;;;;;;10260339;28;93520;-63
2023/12/08 20:02:17;;;;;;;;;;;18.90;58.10;;;;;;10269655;28;93965;-64
2023/12/08 20:07:19;;;;;;;;;;;18.90;58.90;;;;;;10279119;28;94371;-65
2023/12/08 20:12:21;;;;;;;;;;;18.80;58.40;;;;;;10280690;28;94858;-64
2023/12/08 20:17:23;;;;;;;;;;;18.70;58.30;;;;;;10255735;28;94547;-64
2023/12/08 20:22:25;;;;;;;;;;;18.80;58.40;;;;;;10275484;28;92890;-64
2023/12/08 20:27:27;;;;;;;;;;;18.80;58.40;;;;;;10278985;28;93727;-65
2023/12/08 20:32:29;;;;;;;;;;;18.70;58.30;;;;;;10276158;28;94392;-65
2023/12/08 20:37:31;;;;;;;;;;;18.70;58.40;;;;;;10269247;28;95866;-65
2023/12/08 20:42:33;;;;;;;;;;;18.70;58.60;;;;;;10273270;28;93623;-65
2023/12/08 20:47:35;;;;;;;;;;;18.60;58.70;;;;;;10265370;28;95951;-65
2023/12/08 20:52:37;;;;;;;;;;;18.50;58.90;;;;;;10275553;28;94184;-65
2023/12/08 20:57:38;;;;;;;;;;;18.40;59.10;;;;;;10271832;28;94444;-66
2023/12/08 21:02:40;;;;;;;;;;;18.40;59.50;;;;;;10261745;28;93568;-65
2023/12/08 21:07:42;;;;;;;;;;;18.20;59.60;;;;;;10271666;28;94596;-65
2023/12/08 21:12:44;;;;;;;;;;;18.20;59.80;;;;;;10250694;28;93828;-65
2023/12/08 21:17:47;;;;;;;;;;;18.10;60.00;;;;;;10261007;28;93554;-65
2023/12/08 21:22:49;;;;;;;;;;;18.00;60.10;;;;;;10272363;28;95282;-65
2023/12/08 21:27:51;;;;;;;;;;;17.90;60.40;;;;;;10269844;28;96483;-65
2023/12/08 21:32:53;;;;;;;;;;;17.90;60.50;;;;;;10271749;28;94152;-65
2023/12/08 21:37:55;;;;;;;;;;;17.80;60.70;;;;;;10280222;28;94335;-65
2023/12/08 21:42:58;;;;;;;;;;;17.70;60.90;;;;;;10252615;28;93436;-64
2023/12/08 21:48:02;;;;;;;;;;;17.70;61.10;;;;;;10278615;28;95849;-64
2023/12/08 21:53:06;;;;;;;;;;;17.60;61.30;;;;;;10280051;28;93431;-64
2023/12/08 21:58:07;;;;;;;;;;;17.60;61.40;;;;;;10269599;28;93373;-64
2023/12/08 22:03:09;;;;;;;;;;;17.50;61.60;;;;;;10262883;28;93064;-63
2023/12/08 22:08:11;;;;;;;;;;;17.50;61.80;;;;;;10254532;28;94093;-64
2023/12/08 22:13:13;;;;;;;;;;;17.50;62.10;;;;;;10270955;28;94905;-64
2023/12/08 22:18:15;;;;;;;;;;;17.50;62.30;;;;;;10263107;28;95903;-64
2023/12/08 22:23:17;;;;;;;;;;;17.50;62.40;;;;;;10274991;28;93534;-64
2023/12/08 22:28:22;;;;;;;;;;;17.40;62.50;;;;;;10282909;28;94483;-65
2023/12/08 22:33:25;;;;;;;;;;;17.40;62.60;;;;;;10272386;28;95845;-68
2023/12/08 22:38:27;;;;;;;;;;;17.40;62.80;;;;;;10277211;28;94997;-65
2023/12/08 22:43:28;;;;;;;;;;;17.30;62.70;;;;;;10274538;28;92841;-64
2023/12/08 22:48:34;;;;;;;;;;;17.30;62.80;;;;;;10269038;28;94739;-63
2023/12/08 22:53:36;;;;;;;;;;;17.30;62.90;;;;;;10267280;28;92798;-65
2023/12/08 22:58:38;;;;;;;;;;;17.20;62.80;;;;;;10268371;28;94946;-64
2023/12/08 23:03:40;;;;;;;;;;;17.20;62.80;;;;;;10252804;28;93555;-64
2023/12/08 23:08:42;;;;;;;;;;;17.10;62.80;;;;;;10274697;28;97384;-64
2023/12/08 23:13:43;;;;;;;;;;;17.10;62.70;;;;;;10271293;28;94781;-64
2023/12/08 23:18:45;;;;;;;;;;;17.10;62.70;;;;;;10280171;28;93485;-64
2023/12/08 23:23:47;;;;;;;;;;;17.00;62.60;;;;;;10278834;28;94516;-64
2023/12/08 23:28:50;;;;;;;;;;;17.00;62.50;;;;;;10267719;28;93575;-64
2023/12/08 23:33:52;;;;;;;;;;;17.00;62.60;;;;;;10274302;28;93914;-74
2023/12/08 23:38:54;;;;;;;;;;;16.90;62.60;;;;;;10273815;28;94405;-64
2023/12/08 23:43:56;;;;;;;;;;;16.90;62.60;;;;;;10269361;28;94091;-64
2023/12/08 23:48:59;;;;;;;;;;;16.90;62.50;;;;;;10277373;28;94476;-64
2023/12/08 23:54:01;;;;;;;;;;;16.90;62.50;;;;;;10268435;28;94599;-64
2023/12/08 23:59:03;;;;;;;;;;;16.80;62.50;;;;;;10272769;28;97102;-64
